Terminal Aerodrome Forecast
Issued by NWS

Home | Current Version | Previous Version | Text Only | Print | Product List | Glossary On
Versions: 1 2 3 4 5 6 7 8 9 10 11 12 13 14 15 16 17 18 19 20 21 22 23 24 25
492
FTUS41 KBUF 312039 AAA
TAFJHW
TAF AMD
KJHW 312039Z 3121/0118 32010KT P6SM SCT250
     FM312300 34005KT P6SM FEW250
     FM010200 04004KT P6SM FEW250
     FM010800 09006KT 4SM BR SCT250
     FM011200 14006KT P6SM SCT250
      AMD LTD TO CLD VIS AND WIND=

USA.gov is the U.S. government's official web portal to all federal, state and local government web resources and services.